createdAt,value
2024-04-14T00:01:44.869Z,12.10
2024-04-14T00:04:12.514Z,12.20
2024-04-14T00:06:40.276Z,12.10
2024-04-14T00:09:08.076Z,12.10
2024-04-14T00:11:35.674Z,12.00
2024-04-14T00:14:03.408Z,12.00
2024-04-14T00:16:31.126Z,12.00
2024-04-14T00:18:58.752Z,12.00
2024-04-14T00:21:26.758Z,12.00
2024-04-14T00:23:54.306Z,12.00
2024-04-14T00:26:22.084Z,12.10
2024-04-14T00:28:50.682Z,12.10
2024-04-14T00:31:24.117Z,12.10
2024-04-14T00:33:52.531Z,12.10
2024-04-14T00:36:20.087Z,12.00
2024-04-14T00:38:47.649Z,12.00
2024-04-14T00:41:15.302Z,11.90
2024-04-14T00:43:42.850Z,11.90
2024-04-14T00:46:10.614Z,11.80
2024-04-14T00:48:38.241Z,11.70
2024-04-14T00:51:06.918Z,11.70
2024-04-14T00:53:34.583Z,11.70
2024-04-14T00:56:03.263Z,11.70
2024-04-14T00:58:30.981Z,11.70
2024-04-14T01:00:58.719Z,11.70
2024-04-14T01:03:26.583Z,11.70
2024-04-14T01:05:54.382Z,11.70
2024-04-14T01:08:22.425Z,11.70
2024-04-14T01:10:50.028Z,11.60
2024-04-14T01:13:17.619Z,11.60
2024-04-14T01:15:45.261Z,11.50
2024-04-14T01:18:12.921Z,11.50
2024-04-14T01:20:41.287Z,11.50
2024-04-14T01:23:08.887Z,11.40
2024-04-14T01:25:36.430Z,11.30
2024-04-14T01:28:04.731Z,11.30
2024-04-14T01:30:32.306Z,11.30
2024-04-14T01:33:00.143Z,11.30
2024-04-14T01:35:27.746Z,11.30
2024-04-14T01:38:05.181Z,11.30
2024-04-14T01:40:39.108Z,11.20
2024-04-14T01:43:07.120Z,11.20
2024-04-14T01:45:34.653Z,11.20
2024-04-14T01:48:02.468Z,11.10
2024-04-14T01:50:30.020Z,11.10
2024-04-14T01:52:57.626Z,11.10
2024-04-14T01:55:25.239Z,11.10
2024-04-14T01:57:54.620Z,11.10
2024-04-14T02:00:22.415Z,11.10
2024-04-14T02:02:53.266Z,11.10
2024-04-14T02:05:20.919Z,11.00
2024-04-14T02:07:48.541Z,11.00
2024-04-14T02:10:16.261Z,10.90
2024-04-14T02:12:43.909Z,10.90
2024-04-14T02:15:11.528Z,10.90
2024-04-14T02:17:39.263Z,10.80
2024-04-14T02:20:07.267Z,10.80
2024-04-14T02:22:34.924Z,10.80
2024-04-14T02:25:02.520Z,10.80
2024-04-14T02:27:30.233Z,10.80
2024-04-14T02:29:57.814Z,10.70
2024-04-14T02:32:25.411Z,10.70
2024-04-14T02:34:52.992Z,10.70
2024-04-14T02:37:20.965Z,10.70
2024-04-14T02:39:49.297Z,10.60
2024-04-14T02:42:16.826Z,10.70
2024-04-14T02:44:44.432Z,10.60
2024-04-14T02:47:11.967Z,10.60
2024-04-14T02:49:39.567Z,10.70
2024-04-14T02:52:07.423Z,10.60
2024-04-14T02:54:35.119Z,10.60
2024-04-14T02:57:02.838Z,10.50
2024-04-14T02:59:35.691Z,10.50
2024-04-14T03:02:03.478Z,10.50
2024-04-14T03:04:31.601Z,10.40
2024-04-14T03:06:59.319Z,10.40
2024-04-14T03:09:27.020Z,10.40
2024-04-14T03:11:55.051Z,10.40
2024-04-14T03:14:22.682Z,10.50
2024-04-14T03:16:50.310Z,10.60
2024-04-14T03:19:18.148Z,10.60
2024-04-14T03:21:48.920Z,10.70
2024-04-14T03:24:16.581Z,10.80
2024-04-14T03:26:44.162Z,10.80
2024-04-14T03:29:11.824Z,10.70
2024-04-14T03:31:39.448Z,10.70
2024-04-14T03:34:07.686Z,10.80
2024-04-14T03:36:35.406Z,10.80
2024-04-14T03:39:02.980Z,10.90
2024-04-14T03:41:30.516Z,10.90
2024-04-14T03:43:58.124Z,11.00
2024-04-14T03:46:25.671Z,11.00
2024-04-14T03:48:53.356Z,11.10
2024-04-14T03:51:21.010Z,11.10
2024-04-14T03:53:48.684Z,11.10
2024-04-14T03:56:19.077Z,11.20
2024-04-14T03:58:46.674Z,11.20
2024-04-14T04:01:14.319Z,11.10
2024-04-14T04:03:42.133Z,11.10
2024-04-14T04:06:09.799Z,11.10
2024-04-14T04:08:37.386Z,11.10
2024-04-14T04:11:06.500Z,11.10
2024-04-14T04:13:34.405Z,11.10
2024-04-14T04:16:04.670Z,11.20
2024-04-14T04:18:37.098Z,11.50
2024-04-14T04:21:08.690Z,11.50
2024-04-14T04:23:36.339Z,11.50
2024-04-14T04:26:04.349Z,11.50
2024-04-14T04:28:32.122Z,11.50
2024-04-14T04:39:15.566Z,11.50
2024-04-14T04:41:43.143Z,11.50
2024-04-14T10:58:41.473Z,17.20
2024-04-14T11:01:09.346Z,17.30
2024-04-14T11:03:37.213Z,17.10
2024-04-14T11:06:05.101Z,16.70
2024-04-14T11:08:34.770Z,16.40
2024-04-14T11:11:02.500Z,16.30
2024-04-14T11:13:30.338Z,16.30
2024-04-14T11:15:58.896Z,16.40
2024-04-14T11:18:30.475Z,16.60
2024-04-14T11:20:58.106Z,16.90
2024-04-14T11:23:27.610Z,17.20
2024-04-14T11:25:55.574Z,17.50
2024-04-14T11:28:23.413Z,17.70
2024-04-14T11:30:51.328Z,17.70
2024-04-14T11:33:23.895Z,17.70
2024-04-14T11:36:01.886Z,17.90
2024-04-14T11:38:30.102Z,18.20
2024-04-14T11:40:57.688Z,18.30
2024-04-14T11:43:25.321Z,18.50
2024-04-14T11:45:53.515Z,18.40
2024-04-14T11:48:25.513Z,18.60
2024-04-14T11:50:53.450Z,18.90
2024-04-14T11:53:21.286Z,18.50
2024-04-14T11:55:48.835Z,17.90
2024-04-14T11:58:21.068Z,17.80
2024-04-14T12:00:49.474Z,17.60
2024-04-14T12:03:17.105Z,17.30
2024-04-14T12:05:44.665Z,17.10
2024-04-14T12:08:12.471Z,17.00
2024-04-14T12:10:40.073Z,17.10
2024-04-14T12:13:07.978Z,17.20
2024-04-14T12:15:35.672Z,17.40
2024-04-14T12:18:03.567Z,17.40
2024-04-14T12:20:31.172Z,17.10
2024-04-14T12:22:59.679Z,17.10
2024-04-14T12:25:27.778Z,17.30
2024-04-14T12:27:55.350Z,17.80
2024-04-14T12:30:26.729Z,18.10
2024-04-14T12:33:00.238Z,18.20
2024-04-14T12:35:27.895Z,18.20
2024-04-14T12:37:55.463Z,18.50
2024-04-14T12:40:23.144Z,18.80
2024-04-14T12:42:50.761Z,18.80
2024-04-14T12:45:18.448Z,18.70
2024-04-14T12:47:46.081Z,18.50
2024-04-14T12:50:19.292Z,18.30
2024-04-14T12:52:48.877Z,17.80
2024-04-14T12:55:16.487Z,17.20
2024-04-14T12:57:44.109Z,16.90
2024-04-14T13:00:12.049Z,16.90
2024-04-14T13:02:39.663Z,17.20
2024-04-14T13:05:07.609Z,17.60
2024-04-14T13:07:35.232Z,17.70
2024-04-14T13:10:02.949Z,17.70
2024-04-14T13:12:30.554Z,17.60
2024-04-14T13:14:58.116Z,17.60
2024-04-14T13:17:26.708Z,17.60
2024-04-14T13:19:54.485Z,17.40
2024-04-14T13:22:22.056Z,17.80
2024-04-14T13:24:49.835Z,18.40
2024-04-14T13:27:17.416Z,18.30
2024-04-14T13:29:45.148Z,18.30
2024-04-14T13:32:12.695Z,18.10
2024-04-14T13:34:40.319Z,17.80
2024-04-14T13:37:08.070Z,18.10
2024-04-14T13:39:35.753Z,18.30
2024-04-14T13:42:03.413Z,18.60
2024-04-14T13:44:31.578Z,18.70
2024-04-14T13:46:59.334Z,18.60
2024-04-14T13:49:26.930Z,18.90
2024-04-14T13:51:55.395Z,19.20
2024-04-14T13:54:25.075Z,19.30
2024-04-14T13:56:52.688Z,19.40
2024-04-14T13:59:20.387Z,19.70
2024-04-14T14:01:48.112Z,20.10
2024-04-14T14:04:18.976Z,20.00
2024-04-14T14:06:46.782Z,19.60
2024-04-14T14:09:14.691Z,19.00
2024-04-14T14:11:42.334Z,19.30
2024-04-14T14:14:09.882Z,19.00
2024-04-14T14:16:37.555Z,18.70
2024-04-14T14:19:05.182Z,18.60
2024-04-14T14:21:33.017Z,19.10
2024-04-14T14:24:00.636Z,19.20
2024-04-14T14:26:28.260Z,18.90
2024-04-14T14:28:55.811Z,18.70
2024-04-14T14:31:23.809Z,18.70
2024-04-14T14:34:10.108Z,18.70
2024-04-14T14:36:38.879Z,18.60
2024-04-14T14:39:06.591Z,18.20
2024-04-14T14:41:34.336Z,18.00
2024-04-14T14:44:01.917Z,18.10
2024-04-14T14:46:29.876Z,18.10
2024-04-14T14:49:00.163Z,18.00
2024-04-14T14:51:30.105Z,18.00
2024-04-14T14:53:57.721Z,17.50
2024-04-14T14:56:25.670Z,17.10
2024-04-14T14:58:53.481Z,16.70
2024-04-14T15:01:21.240Z,16.60
2024-04-14T15:03:51.074Z,16.50
2024-04-14T15:06:19.138Z,16.50
2024-04-14T15:08:46.814Z,16.60
2024-04-14T15:11:21.008Z,16.60
2024-04-14T15:14:07.536Z,16.30
2024-04-14T15:16:35.359Z,16.20
2024-04-14T15:19:03.036Z,15.90
2024-04-14T15:21:32.009Z,16.00
2024-04-14T15:24:00.818Z,16.20
2024-04-14T15:26:28.550Z,16.10
2024-04-14T15:28:56.137Z,16.00
2024-04-14T15:31:23.898Z,15.90
2024-04-14T15:33:51.609Z,15.90
2024-04-14T15:36:20.403Z,16.00
2024-04-14T15:38:48.038Z,16.00
2024-04-14T15:41:18.316Z,15.70
2024-04-14T15:43:47.687Z,15.60
2024-04-14T15:46:15.420Z,15.40
2024-04-14T15:48:43.061Z,15.40
2024-04-14T15:51:18.369Z,15.40
2024-04-14T15:53:50.580Z,15.30
2024-04-14T15:56:18.300Z,15.20
2024-04-14T15:58:45.915Z,15.10
2024-04-14T16:01:13.732Z,15.10
2024-04-14T16:03:41.831Z,15.00
2024-04-14T16:06:09.605Z,15.00
2024-04-14T16:08:37.197Z,15.00
2024-04-14T16:11:06.210Z,15.00
2024-04-14T16:13:35.329Z,14.90
2024-04-14T16:16:10.139Z,14.80
2024-04-14T16:18:39.083Z,14.90
2024-04-14T16:21:07.647Z,14.80
2024-04-14T16:23:43.488Z,14.70
2024-04-14T16:26:11.387Z,14.60
2024-04-14T16:28:39.636Z,14.40
2024-04-14T16:31:07.509Z,14.40
2024-04-14T16:33:35.388Z,14.40
2024-04-14T16:36:03.116Z,14.40
2024-04-14T16:38:30.707Z,14.30
2024-04-14T16:40:58.232Z,14.30
2024-04-14T16:43:25.927Z,14.10
2024-04-14T16:45:53.612Z,14.10
2024-04-14T16:48:22.498Z,14.00
2024-04-14T16:50:50.611Z,14.00
2024-04-14T16:53:18.262Z,14.00
2024-04-14T16:55:46.536Z,13.90
2024-04-14T16:58:14.263Z,14.00
2024-04-14T17:00:41.957Z,13.90
2024-04-14T17:03:09.775Z,13.90
2024-04-14T17:05:37.477Z,13.70
2024-04-14T17:08:05.187Z,13.70
2024-04-14T17:10:32.820Z,13.60
2024-04-14T17:13:00.346Z,13.60
2024-04-14T17:15:28.462Z,13.70
2024-04-14T17:17:56.196Z,13.80
2024-04-14T17:20:23.837Z,13.80
2024-04-14T17:22:51.424Z,13.80
2024-04-14T17:25:19.068Z,13.70
2024-04-14T17:27:46.709Z,13.70
2024-04-14T17:30:14.457Z,13.80
2024-04-14T17:32:42.138Z,13.70
2024-04-14T17:35:09.871Z,13.80
2024-04-14T17:37:37.455Z,13.70
2024-04-14T17:40:06.675Z,13.70
2024-04-14T17:42:34.494Z,13.60
2024-04-14T17:45:04.081Z,13.50
2024-04-14T17:47:31.926Z,13.40
2024-04-14T17:49:59.551Z,13.30
2024-04-14T17:52:27.133Z,13.20
2024-04-14T17:54:54.750Z,13.20
2024-04-14T17:57:22.280Z,13.20
2024-04-14T17:59:49.918Z,13.10
2024-04-14T18:02:17.559Z,13.20
2024-04-14T18:04:45.265Z,13.00
2024-04-14T18:07:13.024Z,13.00
2024-04-14T18:09:40.786Z,13.10
2024-04-14T18:12:09.979Z,13.10
2024-04-14T18:14:37.560Z,13.10
2024-04-14T18:17:05.253Z,13.10
2024-04-14T18:19:34.033Z,13.10
2024-04-14T18:22:01.734Z,13.20
2024-04-14T18:24:30.444Z,13.10
2024-04-14T18:26:58.162Z,13.10
2024-04-14T18:29:26.315Z,13.20
2024-04-14T18:31:54.714Z,13.10
2024-04-14T18:34:22.339Z,12.90
2024-04-14T18:36:49.952Z,12.90
2024-04-14T18:39:17.574Z,12.90
2024-04-14T19:48:47.401Z,11.70
